Terminal Aerodrome Forecast
Issued by NWS

Home | Current Version | Previous Version | Text Only | Print | Product List | Glossary On
Versions: 1 2 3 4 5 6 7 8 9 10 11 12
930
FTUS44 KEPZ 281133
TAFLRU
TAF
KLRU 281133Z 2812/2912 26011KT P6SM BKN100
     FM281500 25020G30KT P6SM SCT070 SCT100
      TEMPO 2819/2823 6SM BLDU
     FM290200 29014G24KT P6SM SCT070 SCT100
     FM290700 30010KT P6SM SCT070 BKN100=

USA.gov is the U.S. government's official web portal to all federal, state and local government web resources and services.